Time;durP1;ratioP1;P1;durP2;ratioP2;P2;SDS_P1;SDS_P2;PMS_P1;PMS_P2;Temp;Humidity;BMP_temperature;BMP_pressure;BME280_temperature;BME280_humidity;BME280_pressure;Samples;Min_cycle;Max_cycle;Signal;HPM_P1;HPM_P2
2021/09/22 04:49:21;;;;;;;7.68;6.45;;;;;;;;;;5884158;23;20188;-71
2021/09/22 04:52:07;;;;;;;12.63;6.97;;;;;;;;;;4985442;28;20045;-70
2021/09/22 04:54:53;;;;;;;8.77;6.93;;;;;;;;;;4984836;28;20143;-70
2021/09/22 04:57:43;;;;;;;7.78;6.93;;;;;;;;;;4952597;28;20050;-70
2021/09/22 05:00:29;;;;;;;9.40;7.25;;;;;;;;;;4967313;28;20526;-70
2021/09/22 05:03:15;;;;;;;11.75;7.43;;;;;;;;;;4967959;28;20049;-70
2021/09/22 05:06:17;;;;;;;14.07;6.25;;;;;;;;;;4937413;28;20106;-71
2021/09/22 05:09:03;;;;;;;13.93;7.35;;;;;;;;;;4970779;28;20057;-72
2021/09/22 05:12:00;;;;;;;11.38;8.45;;;;;;;;;;4899828;28;20405;-72
2021/09/22 05:14:46;;;;;;;9.10;6.47;;;;;;;;;;4962510;28;20521;-70
2021/09/22 05:17:32;;;;;;;11.75;7.57;;;;;;;;;;4965595;28;20062;-73
2021/09/22 05:20:18;;;;;;;9.30;7.07;;;;;;;;;;4961891;28;20362;-70
2021/09/22 05:23:05;;;;;;;10.82;6.97;;;;;;;;;;4960686;28;20257;-69
2021/09/22 05:25:51;;;;;;;29.80;7.63;;;;;;;;;;4963171;28;20184;-70
2021/09/22 05:28:37;;;;;;;10.88;6.88;;;;;;;;;;4963702;28;20430;-70
2021/09/22 05:31:23;;;;;;;11.52;6.30;;;;;;;;;;4965525;28;20103;-70
2021/09/22 05:34:09;;;;;;;10.00;6.72;;;;;;;;;;4967797;28;20066;-74
2021/09/22 05:36:55;;;;;;;11.82;6.30;;;;;;;;;;4965359;28;20109;-70
2021/09/22 05:39:42;;;;;;;13.55;6.38;;;;;;;;;;4968247;28;20129;-71
2021/09/22 05:42:48;;;;;;;10.07;6.80;;;;;;;;;;4884677;29;20044;-71
2021/09/22 05:45:34;;;;;;;9.90;6.70;;;;;;;;;;4893353;29;20088;-71
2021/09/22 05:48:19;;;;;;;8.07;7.10;;;;;;;;;;4950840;28;20053;-71
2021/09/22 05:51:06;;;;;;;9.30;6.72;;;;;;;;;;4966426;28;20058;-72
2021/09/22 05:53:53;;;;;;;11.50;7.35;;;;;;;;;;4964085;28;20053;-71
2021/09/22 05:56:42;;;;;;;8.38;6.75;;;;;;;;;;4958551;28;20057;-71
2021/09/22 05:59:29;;;;;;;10.85;7.03;;;;;;;;;;4970144;28;20057;-72
2021/09/22 06:02:15;;;;;;;10.02;6.93;;;;;;;;;;4971333;28;20062;-71
2021/09/22 06:05:01;;;;;;;9.00;6.22;;;;;;;;;;4967543;28;20073;-71
2021/09/22 06:07:47;;;;;;;7.25;6.00;;;;;;;;;;4960073;28;20113;-71
2021/09/22 06:10:33;;;;;;;10.32;7.03;;;;;;;;;;4960995;28;20073;-71
2021/09/22 06:13:16;;;;;;;10.88;6.90;;;;;;;;;;4950880;28;20058;-72
2021/09/22 06:15:43;;;;;;;9.20;5.93;;;;;;;;;;4935587;28;20462;-71
2021/09/22 06:18:11;;;;;;;10.50;5.78;;;;;;;;;;4939256;29;20053;-71
2021/09/22 06:20:38;;;;;;;8.70;6.00;;;;;;;;;;4959997;28;20566;-72
2021/09/22 06:23:06;;;;;;;5.90;5.30;;;;;;;;;;4969718;28;20039;-71
2021/09/22 06:25:33;;;;;;;6.38;5.78;;;;;;;;;;4935981;28;20439;-72
2021/09/22 06:28:01;;;;;;;10.43;5.57;;;;;;;;;;4967260;28;20051;-71
2021/09/22 06:30:30;;;;;;;11.35;5.43;;;;;;;;;;4966947;28;20047;-72
2021/09/22 06:32:58;;;;;;;8.00;5.22;;;;;;;;;;4941643;28;20459;-72
2021/09/22 06:35:43;;;;;;;9.68;4.55;;;;;;;;;;4952916;28;20517;-72
2021/09/22 06:38:15;;;;;;;8.93;5.15;;;;;;;;;;4938689;29;20062;-73
2021/09/22 06:40:48;;;;;;;6.20;5.00;;;;;;;;;;4943738;28;20426;-71
2021/09/22 06:43:16;;;;;;;10.98;5.93;;;;;;;;;;4950985;28;20042;-72
2021/09/22 06:45:46;;;;;;;6.43;5.20;;;;;;;;;;4951326;28;20530;-72
2021/09/22 06:48:13;;;;;;;5.40;4.68;;;;;;;;;;4965376;28;20069;-70
2021/09/22 06:50:40;;;;;;;8.57;4.90;;;;;;;;;;4965083;28;20055;-73
2021/09/22 06:53:08;;;;;;;5.82;5.30;;;;;;;;;;4961052;28;20118;-72
2021/09/22 06:55:35;;;;;;;8.80;6.40;;;;;;;;;;4966999;28;20043;-72
2021/09/22 06:58:03;;;;;;;11.40;5.97;;;;;;;;;;4961428;28;20042;-72
2021/09/22 07:00:30;;;;;;;8.95;6.18;;;;;;;;;;4955449;28;20038;-72
2021/09/22 07:03:01;;;;;;;6.93;5.85;;;;;;;;;;4971735;28;20121;-73
2021/09/22 07:05:28;;;;;;;9.63;6.53;;;;;;;;;;4959283;28;20047;-71
2021/09/22 07:07:55;;;;;;;9.50;6.35;;;;;;;;;;4971279;28;20043;-72
2021/09/22 07:10:22;;;;;;;10.43;6.15;;;;;;;;;;4970301;28;20510;-72
2021/09/22 07:12:52;;;;;;;7.30;5.85;;;;;;;;;;4981825;28;20348;-73
2021/09/22 07:15:20;;;;;;;12.38;6.68;;;;;;;;;;4961961;28;20058;-72
2021/09/22 07:17:47;;;;;;;12.50;6.07;;;;;;;;;;4940257;28;20110;-71
2021/09/22 07:20:16;;;;;;;11.30;6.32;;;;;;;;;;4955820;28;20067;-72
2021/09/22 07:22:43;;;;;;;11.80;7.28;;;;;;;;;;4953525;28;20070;-71
2021/09/22 07:25:13;;;;;;;7.55;5.75;;;;;;;;;;4957370;28;20424;-73
2021/09/22 07:27:40;;;;;;;6.30;5.70;;;;;;;;;;4945625;28;20051;-73
2021/09/22 07:30:09;;;;;;;14.63;6.53;;;;;;;;;;4956373;28;20410;-72
2021/09/22 07:32:37;;;;;;;8.82;6.53;;;;;;;;;;4965021;28;20110;-72
2021/09/22 07:35:05;;;;;;;9.27;6.30;;;;;;;;;;4946181;29;20098;-72
2021/09/22 07:37:37;;;;;;;8.75;6.80;;;;;;;;;;4960185;28;20132;-72
2021/09/22 07:40:05;;;;;;;7.07;5.90;;;;;;;;;;4957475;28;20039;-73
2021/09/22 07:42:32;;;;;;;8.63;6.80;;;;;;;;;;4967650;28;20050;-72
2021/09/22 07:45:00;;;;;;;8.15;7.18;;;;;;;;;;4971264;28;20061;-72
2021/09/22 07:47:27;;;;;;;10.38;6.85;;;;;;;;;;4949509;28;20043;-72
2021/09/22 07:49:55;;;;;;;8.60;7.40;;;;;;;;;;4955569;28;20133;-73
2021/09/22 07:52:22;;;;;;;8.40;6.47;;;;;;;;;;4968718;28;20078;-72
2021/09/22 07:54:51;;;;;;;10.68;7.07;;;;;;;;;;4968154;28;20049;-72
2021/09/22 07:57:19;;;;;;;12.23;7.30;;;;;;;;;;4972044;28;20050;-73
2021/09/22 07:59:46;;;;;;;9.75;6.93;;;;;;;;;;4968528;28;20418;-72
2021/09/22 08:02:14;;;;;;;11.02;7.35;;;;;;;;;;4968212;28;20039;-72
2021/09/22 08:04:42;;;;;;;10.60;7.53;;;;;;;;;;4950339;28;20080;-73
2021/09/22 08:07:09;;;;;;;11.85;7.10;;;;;;;;;;4956571;28;20043;-72
2021/09/22 08:09:36;;;;;;;13.95;7.75;;;;;;;;;;4939619;29;20055;-72
2021/09/22 08:12:06;;;;;;;10.32;7.47;;;;;;;;;;4941547;29;20050;-73
2021/09/22 08:14:34;;;;;;;11.38;7.60;;;;;;;;;;4960082;28;20376;-73
2021/09/22 08:17:01;;;;;;;10.18;7.78;;;;;;;;;;4956178;28;20043;-71
2021/09/22 08:19:28;;;;;;;9.52;7.70;;;;;;;;;;4972285;28;20059;-71
2021/09/22 08:21:57;;;;;;;10.05;7.38;;;;;;;;;;4949481;29;20423;-73
2021/09/22 08:24:25;;;;;;;11.57;8.05;;;;;;;;;;4958219;28;20035;-71
2021/09/22 08:26:53;;;;;;;15.85;7.97;;;;;;;;;;4970993;28;20487;-72
2021/09/22 08:29:22;;;;;;;16.42;7.85;;;;;;;;;;4950179;28;20062;-73
2021/09/22 08:31:50;;;;;;;10.55;8.25;;;;;;;;;;4950915;28;20478;-73
2021/09/22 08:34:20;;;;;;;10.90;7.32;;;;;;;;;;4970616;28;20062;-72
2021/09/22 08:36:48;;;;;;;14.18;7.60;;;;;;;;;;4970190;28;20053;-73
2021/09/22 08:39:16;;;;;;;11.43;7.35;;;;;;;;;;4967678;28;20117;-71
2021/09/22 08:41:44;;;;;;;8.82;7.50;;;;;;;;;;4967987;28;20075;-70
2021/09/22 08:44:12;;;;;;;9.82;7.30;;;;;;;;;;4972374;28;20046;-70
2021/09/22 08:46:42;;;;;;;10.63;7.15;;;;;;;;;;4971497;28;20047;-71
2021/09/22 08:49:10;;;;;;;10.50;7.32;;;;;;;;;;4969186;28;20074;-71
2021/09/22 08:51:38;;;;;;;13.13;7.88;;;;;;;;;;4969697;28;20061;-72
2021/09/22 08:54:06;;;;;;;8.18;7.28;;;;;;;;;;4954939;28;20039;-71
2021/09/22 08:56:36;;;;;;;9.95;6.90;;;;;;;;;;4950522;28;20058;-71
2021/09/22 08:59:05;;;;;;;8.60;7.47;;;;;;;;;;4967455;28;20061;-74
2021/09/22 09:01:32;;;;;;;12.40;7.63;;;;;;;;;;4961632;28;20043;-71
2021/09/22 09:04:13;;;;;;;10.88;7.90;;;;;;;;;;4954065;28;20375;-71
2021/09/22 09:06:40;;;;;;;17.00;8.35;;;;;;;;;;4957537;28;20082;-71
2021/09/22 09:09:08;;;;;;;11.07;8.60;;;;;;;;;;4959960;28;20058;-71
2021/09/22 09:11:36;;;;;;;9.57;7.72;;;;;;;;;;4957208;28;20133;-73
2021/09/22 09:14:05;;;;;;;9.02;8.10;;;;;;;;;;4972084;28;20042;-74
2021/09/22 09:16:36;;;;;;;9.98;8.15;;;;;;;;;;4971543;28;20444;-73
2021/09/22 09:19:11;;;;;;;10.50;8.35;;;;;;;;;;4971064;28;20516;-72
2021/09/22 09:21:53;;;;;;;11.15;8.77;;;;;;;;;;4970524;28;20121;-73
2021/09/22 09:24:29;;;;;;;12.30;8.52;;;;;;;;;;4937750;28;20047;-72
2021/09/22 09:26:57;;;;;;;11.57;8.60;;;;;;;;;;4969233;28;20133;-70
2021/09/22 09:29:24;;;;;;;9.73;8.45;;;;;;;;;;4962549;28;20042;-71
2021/09/22 09:31:53;;;;;;;11.88;8.80;;;;;;;;;;4957844;28;20035;-70
2021/09/22 09:34:21;;;;;;;11.63;8.82;;;;;;;;;;4953114;28;20415;-73
2021/09/22 09:36:50;;;;;;;11.27;8.02;;;;;;;;;;4957340;28;20495;-73
2021/09/22 09:39:20;;;;;;;14.40;9.10;;;;;;;;;;4960701;28;20061;-73
2021/09/22 09:41:49;;;;;;;10.43;9.27;;;;;;;;;;4970351;28;20097;-73
2021/09/22 09:44:18;;;;;;;12.57;9.15;;;;;;;;;;4952183;28;20039;-74
2021/09/22 09:46:46;;;;;;;10.73;9.45;;;;;;;;;;4968084;28;20138;-73
2021/09/22 09:49:15;;;;;;;16.63;9.95;;;;;;;;;;4966590;28;20047;-73
2021/09/22 09:51:45;;;;;;;12.82;9.85;;;;;;;;;;4969215;28;20506;-73
2021/09/22 09:54:20;;;;;;;12.05;9.38;;;;;;;;;;4971066;28;20672;-73
2021/09/22 09:56:48;;;;;;;12.73;10.70;;;;;;;;;;4949444;28;20078;-73
2021/09/22 09:59:16;;;;;;;17.00;9.63;;;;;;;;;;4966256;28;20530;-73
2021/09/22 10:01:46;;;;;;;14.63;10.48;;;;;;;;;;4958806;28;20070;-73
2021/09/22 10:04:14;;;;;;;14.48;10.73;;;;;;;;;;4959135;28;20121;-72
2021/09/22 10:06:42;;;;;;;11.60;9.02;;;;;;;;;;4960036;28;20051;-73
2021/09/22 10:09:12;;;;;;;13.90;10.25;;;;;;;;;;4957864;28;20518;-73
2021/09/22 10:11:41;;;;;;;22.00;10.32;;;;;;;;;;4958852;28;20306;-72
2021/09/22 10:14:09;;;;;;;15.73;10.05;;;;;;;;;;4967821;28;20043;-73
2021/09/22 10:16:37;;;;;;;13.68;10.68;;;;;;;;;;4966067;28;20086;-73
2021/09/22 10:19:05;;;;;;;16.25;9.70;;;;;;;;;;4951211;28;20058;-73
2021/09/22 10:21:34;;;;;;;13.68;9.80;;;;;;;;;;4953375;28;20126;-71
2021/09/22 10:24:03;;;;;;;14.43;10.05;;;;;;;;;;4948832;28;20528;-70
2021/09/22 10:26:32;;;;;;;14.35;10.30;;;;;;;;;;4966309;28;20042;-74
2021/09/22 10:29:00;;;;;;;12.20;9.38;;;;;;;;;;4968327;28;20060;-70
2021/09/22 10:31:37;;;;;;;13.18;11.32;;;;;;;;;;4969702;28;20097;-73
2021/09/22 10:34:05;;;;;;;14.35;9.98;;;;;;;;;;4969000;28;20042;-72
2021/09/22 10:36:38;;;;;;;16.75;10.35;;;;;;;;;;4946653;29;20106;-69
2021/09/22 10:39:06;;;;;;;11.85;10.57;;;;;;;;;;4962138;28;20053;-69
2021/09/22 10:41:41;;;;;;;13.85;10.65;;;;;;;;;;4968358;28;20048;-70
2021/09/22 10:44:11;;;;;;;14.32;10.25;;;;;;;;;;4950525;28;20047;-72
2021/09/22 10:46:39;;;;;;;12.43;9.55;;;;;;;;;;4959736;28;20042;-69
2021/09/22 10:49:15;;;;;;;15.98;10.43;;;;;;;;;;4969024;28;20042;-69
2021/09/22 10:51:44;;;;;;;14.43;9.80;;;;;;;;;;4967506;28;20038;-70
2021/09/22 10:54:12;;;;;;;11.55;10.32;;;;;;;;;;4967880;28;20039;-70
2021/09/22 10:56:51;;;;;;;13.30;8.82;;;;;;;;;;4968285;28;20121;-69
2021/09/22 10:59:26;;;;;;;14.98;9.80;;;;;;;;;;4969980;28;20299;-70
2021/09/22 11:01:53;;;;;;;12.15;9.85;;;;;;;;;;4966769;28;20047;-70
2021/09/22 11:04:21;;;;;;;13.52;9.05;;;;;;;;;;4967274;28;20050;-70
2021/09/22 11:06:53;;;;;;;11.95;8.90;;;;;;;;;;4972397;28;20121;-70
2021/09/22 11:09:32;;;;;;;12.55;9.60;;;;;;;;;;4984582;28;20507;-71
2021/09/22 11:12:10;;;;;;;15.38;8.80;;;;;;;;;;4971744;28;20106;-70
2021/09/22 11:14:38;;;;;;;10.45;8.25;;;;;;;;;;4953900;28;20054;-70
2021/09/22 11:17:08;;;;;;;10.88;7.95;;;;;;;;;;4956393;28;20081;-71
2021/09/22 11:19:36;;;;;;;14.02;8.82;;;;;;;;;;4970471;28;20772;-71
2021/09/22 11:22:05;;;;;;;9.73;8.50;;;;;;;;;;4969142;28;20275;-71
2021/09/22 11:24:33;;;;;;;9.50;8.10;;;;;;;;;;4972180;28;20039;-71
2021/09/22 11:27:01;;;;;;;9.15;8.10;;;;;;;;;;4972861;28;20054;-71
2021/09/22 11:29:30;;;;;;;10.75;7.80;;;;;;;;;;4962152;28;20039;-71
2021/09/22 11:31:58;;;;;;;29.10;9.13;;;;;;;;;;4970283;28;20153;-70
2021/09/22 11:34:26;;;;;;;12.43;7.40;;;;;;;;;;4972989;28;20351;-70
2021/09/22 11:37:10;;;;;;;14.25;8.10;;;;;;;;;;4968806;28;20416;-70
2021/09/22 11:39:38;;;;;;;12.95;9.60;;;;;;;;;;4968437;28;20529;-70
2021/09/22 11:42:06;;;;;;;10.75;9.40;;;;;;;;;;4972317;28;20047;-70
2021/09/22 11:44:36;;;;;;;11.98;8.52;;;;;;;;;;4962594;28;20389;-70
2021/09/22 11:47:05;;;;;;;14.30;8.52;;;;;;;;;;4952422;28;20058;-71
2021/09/22 11:49:34;;;;;;;9.65;8.23;;;;;;;;;;4968236;28;20499;-71
2021/09/22 11:52:05;;;;;;;12.85;7.97;;;;;;;;;;4972868;28;20039;-70
2021/09/22 11:54:34;;;;;;;13.93;8.15;;;;;;;;;;4958386;28;20074;-70
2021/09/22 11:57:05;;;;;;;11.88;6.88;;;;;;;;;;4964644;28;20043;-71
2021/09/22 11:59:35;;;;;;;6.40;5.72;;;;;;;;;;4970744;28;20045;-72
2021/09/22 12:02:04;;;;;;;9.90;6.07;;;;;;;;;;4956424;28;20043;-72
2021/09/22 12:04:32;;;;;;;8.63;5.85;;;;;;;;;;4948669;28;20038;-72
2021/09/22 12:06:59;;;;;;;9.32;6.55;;;;;;;;;;4970054;28;20043;-72
2021/09/22 12:09:26;;;;;;;8.82;6.43;;;;;;;;;;4956382;28;20081;-71
2021/09/22 12:12:07;;;;;;;9.68;6.63;;;;;;;;;;4970252;28;20133;-71
2021/09/22 12:14:36;;;;;;;8.63;5.45;;;;;;;;;;4964727;28;20047;-71
2021/09/22 12:17:07;;;;;;;8.15;4.63;;;;;;;;;;4961185;28;20325;-70
2021/09/22 12:19:35;;;;;;;6.63;5.95;;;;;;;;;;4963428;28;20054;-69
2021/09/22 12:22:02;;;;;;;7.47;5.07;;;;;;;;;;4962101;28;20043;-72
2021/09/22 12:24:33;;;;;;;8.15;5.30;;;;;;;;;;4965128;28;20043;-72
2021/09/22 12:27:01;;;;;;;7.13;5.18;;;;;;;;;;4963660;28;20039;-69
2021/09/22 12:29:28;;;;;;;11.63;4.95;;;;;;;;;;4963280;28;20038;-72
2021/09/22 12:32:06;;;;;;;8.35;4.28;;;;;;;;;;4962569;28;20055;-72
2021/09/22 12:34:41;;;;;;;7.28;4.65;;;;;;;;;;4963434;28;20041;-72
2021/09/22 12:37:15;;;;;;;6.55;4.57;;;;;;;;;;4963013;28;20456;-72
2021/09/22 12:39:51;;;;;;;5.35;4.72;;;;;;;;;;4964852;28;20051;-70
2021/09/22 12:42:19;;;;;;;6.00;5.50;;;;;;;;;;4962155;28;20414;-71
2021/09/22 12:44:53;;;;;;;10.80;4.75;;;;;;;;;;4965383;28;20410;-72
2021/09/22 12:47:22;;;;;;;8.50;4.88;;;;;;;;;;4964016;28;20042;-73
2021/09/22 12:50:04;;;;;;;9.02;4.78;;;;;;;;;;4961756;28;20062;-72
2021/09/22 12:52:31;;;;;;;12.70;8.50;;;;;;;;;;4962863;28;20051;-72
2021/09/22 12:54:58;;;;;;;8.13;4.20;;;;;;;;;;4963932;28;20507;-72
2021/09/22 12:57:26;;;;;;;6.22;4.45;;;;;;;;;;4967955;28;20042;-72
2021/09/22 12:59:53;;;;;;;6.38;4.10;;;;;;;;;;4963075;28;20047;-72
2021/09/22 13:02:23;;;;;;;14.75;10.13;;;;;;;;;;4963995;28;20038;-73
2021/09/22 13:04:50;;;;;;;8.60;3.78;;;;;;;;;;4963902;28;20105;-72
2021/09/22 13:07:23;;;;;;;11.00;3.90;;;;;;;;;;4963778;28;20035;-72
2021/09/22 13:10:00;;;;;;;5.72;4.30;;;;;;;;;;4963109;28;20514;-72
2021/09/22 13:12:28;;;;;;;5.47;3.97;;;;;;;;;;4967177;28;20046;-72
2021/09/22 13:14:56;;;;;;;6.50;4.90;;;;;;;;;;4963646;28;20042;-72
2021/09/22 13:17:24;;;;;;;6.53;3.90;;;;;;;;;;4962917;28;20050;-73
2021/09/22 13:19:52;;;;;;;8.05;6.05;;;;;;;;;;4959975;28;20482;-71
2021/09/22 13:22:19;;;;;;;7.72;5.30;;;;;;;;;;4964155;28;20035;-72
2021/09/22 13:24:46;;;;;;;6.07;4.75;;;;;;;;;;4962874;28;20046;-71
2021/09/22 13:27:13;;;;;;;10.40;6.65;;;;;;;;;;4962152;28;20046;-71
2021/09/22 13:29:41;;;;;;;3.95;3.53;;;;;;;;;;4947301;28;20242;-71
2021/09/22 13:32:08;;;;;;;4.43;3.15;;;;;;;;;;4961524;28;20375;-71
2021/09/22 13:34:37;;;;;;;5.05;3.03;;;;;;;;;;4961231;28;20202;-71
2021/09/22 13:37:07;;;;;;;6.45;2.70;;;;;;;;;;4961949;28;20074;-72
2021/09/22 13:39:34;;;;;;;6.53;4.50;;;;;;;;;;4962057;28;20046;-72
2021/09/22 13:42:01;;;;;;;5.38;4.30;;;;;;;;;;4962963;28;20506;-72
2021/09/22 13:44:29;;;;;;;7.35;4.22;;;;;;;;;;4964634;28;20057;-71
2021/09/22 13:46:56;;;;;;;5.00;4.00;;;;;;;;;;4960634;28;20074;-70
2021/09/22 13:49:25;;;;;;;6.30;3.72;;;;;;;;;;4979037;28;20082;-70
2021/09/22 13:51:54;;;;;;;5.70;3.08;;;;;;;;;;4978216;28;20047;-70
2021/09/22 13:54:21;;;;;;;3.97;3.30;;;;;;;;;;4978224;28;20057;-71
2021/09/22 13:56:49;;;;;;;5.90;3.22;;;;;;;;;;4971913;28;20555;-70
2021/09/22 13:59:16;;;;;;;6.82;3.80;;;;;;;;;;4967452;28;20046;-71
2021/09/22 14:01:44;;;;;;;8.48;3.20;;;;;;;;;;4967853;28;20063;-70
2021/09/22 14:04:11;;;;;;;7.18;3.80;;;;;;;;;;4968009;28;20038;-70
2021/09/22 14:06:38;;;;;;;6.40;4.05;;;;;;;;;;4969801;28;20438;-70
2021/09/22 14:09:07;;;;;;;8.02;4.07;;;;;;;;;;4965795;28;20043;-71
2021/09/22 14:11:34;;;;;;;6.10;3.80;;;;;;;;;;4966895;28;20054;-69
2021/09/22 14:14:06;;;;;;;4.00;3.25;;;;;;;;;;4963075;28;20035;-70
2021/09/22 14:16:33;;;;;;;3.60;3.22;;;;;;;;;;4964113;28;20053;-69
2021/09/22 14:19:00;;;;;;;6.05;3.58;;;;;;;;;;4966084;28;20035;-69
2021/09/22 14:21:28;;;;;;;4.72;2.90;;;;;;;;;;4950522;28;20125;-70
2021/09/22 14:23:55;;;;;;;7.07;3.47;;;;;;;;;;4968681;28;20392;-70
2021/09/22 14:26:23;;;;;;;5.13;3.17;;;;;;;;;;4950343;28;20038;-69
2021/09/22 14:28:52;;;;;;;3.90;2.67;;;;;;;;;;4966179;28;20046;-70
2021/09/22 14:31:20;;;;;;;5.00;2.80;;;;;;;;;;4965555;28;20120;-70
2021/09/22 14:33:47;;;;;;;7.80;3.03;;;;;;;;;;4966855;28;20050;-70
2021/09/22 14:36:15;;;;;;;5.82;2.67;;;;;;;;;;4967556;28;20039;-70
2021/09/22 14:38:43;;;;;;;3.90;2.33;;;;;;;;;;4961297;28;20047;-69
2021/09/22 14:41:10;;;;;;;3.10;2.70;;;;;;;;;;4956373;28;20082;-70
2021/09/22 14:43:39;;;;;;;5.10;2.70;;;;;;;;;;4970683;28;20054;-69
2021/09/22 14:46:06;;;;;;;4.50;2.72;;;;;;;;;;4970735;28;20121;-69
2021/09/22 14:48:34;;;;;;;4.10;2.17;;;;;;;;;;4970561;28;20136;-69
2021/09/22 14:51:02;;;;;;;3.88;2.58;;;;;;;;;;4972902;28;20110;-69
2021/09/22 14:53:29;;;;;;;4.00;2.30;;;;;;;;;;4954482;28;20493;-69
2021/09/22 14:55:57;;;;;;;3.85;2.70;;;;;;;;;;4970297;28;20042;-69
2021/09/22 14:58:24;;;;;;;3.78;2.97;;;;;;;;;;4974683;28;20137;-67
2021/09/22 15:00:53;;;;;;;6.22;2.47;;;;;;;;;;4962451;28;20047;-69
2021/09/22 15:03:20;;;;;;;3.63;2.55;;;;;;;;;;4968860;28;20126;-69
2021/09/22 15:05:49;;;;;;;4.63;2.30;;;;;;;;;;4972395;28;20039;-69
2021/09/22 15:08:16;;;;;;;9.38;2.80;;;;;;;;;;4971172;28;20047;-69
2021/09/22 15:10:44;;;;;;;5.30;2.50;;;;;;;;;;4970375;28;20051;-69
2021/09/22 15:13:11;;;;;;;4.05;2.28;;;;;;;;;;4944301;28;20039;-69
2021/09/22 15:15:38;;;;;;;4.45;2.13;;;;;;;;;;4949731;28;20054;-69
2021/09/22 15:18:07;;;;;;;4.47;2.13;;;;;;;;;;4970850;28;20081;-69
2021/09/22 15:20:34;;;;;;;5.90;3.10;;;;;;;;;;4967561;28;20045;-69
2021/09/22 15:23:03;;;;;;;8.85;3.33;;;;;;;;;;4967949;28;20069;-69
2021/09/22 15:25:30;;;;;;;5.75;2.70;;;;;;;;;;4962961;28;20047;-69
2021/09/22 15:27:58;;;;;;;5.95;3.22;;;;;;;;;;4965156;28;20078;-68
2021/09/22 15:30:26;;;;;;;7.50;4.05;;;;;;;;;;4957823;28;20578;-71
2021/09/22 15:32:54;;;;;;;5.45;3.25;;;;;;;;;;4969107;28;20043;-70
2021/09/22 15:35:23;;;;;;;7.80;3.47;;;;;;;;;;4967906;28;20447;-69
2021/09/22 15:37:51;;;;;;;6.75;3.60;;;;;;;;;;4966906;28;20043;-68
2021/09/22 15:40:20;;;;;;;4.07;3.42;;;;;;;;;;4970468;28;20110;-69
2021/09/22 15:42:49;;;;;;;4.97;3.60;;;;;;;;;;4971280;28;20043;-70
2021/09/22 15:45:18;;;;;;;6.93;3.30;;;;;;;;;;4965517;28;20073;-69
2021/09/22 15:47:46;;;;;;;9.48;3.58;;;;;;;;;;4970483;28;20049;-70
2021/09/22 15:50:13;;;;;;;6.15;3.92;;;;;;;;;;4969673;28;20059;-69
2021/09/22 15:52:42;;;;;;;5.10;3.10;;;;;;;;;;4966393;28;20122;-70
2021/09/22 15:55:10;;;;;;;8.63;3.63;;;;;;;;;;4967155;28;20057;-70
2021/09/22 15:57:37;;;;;;;3.47;3.13;;;;;;;;;;4969209;28;20043;-69
2021/09/22 16:00:05;;;;;;;6.28;3.15;;;;;;;;;;4963694;28;20039;-70
2021/09/22 16:02:34;;;;;;;5.35;3.00;;;;;;;;;;4964306;28;20126;-70
2021/09/22 16:05:02;;;;;;;7.03;2.90;;;;;;;;;;4968091;28;20039;-69
2021/09/22 16:07:30;;;;;;;6.28;2.83;;;;;;;;;;4952960;28;20039;-69
2021/09/22 16:09:59;;;;;;;3.78;3.00;;;;;;;;;;4969459;28;20038;-69
2021/09/22 16:12:26;;;;;;;5.22;2.88;;;;;;;;;;4950744;28;20070;-69
2021/09/22 16:14:53;;;;;;;11.38;3.72;;;;;;;;;;4970805;28;20035;-69
2021/09/22 16:17:21;;;;;;;5.22;2.90;;;;;;;;;;4970284;28;20117;-69
2021/09/22 16:19:48;;;;;;;5.22;3.40;;;;;;;;;;4969741;28;20047;-69
2021/09/22 16:22:16;;;;;;;7.07;3.50;;;;;;;;;;4963890;28;20043;-68
2021/09/22 16:24:43;;;;;;;4.50;3.67;;;;;;;;;;4958902;28;20038;-69
2021/09/22 16:27:12;;;;;;;4.95;3.83;;;;;;;;;;4963876;28;20043;-69
2021/09/22 16:29:39;;;;;;;9.13;3.65;;;;;;;;;;4965896;28;20043;-70
2021/09/22 16:32:09;;;;;;;5.68;3.47;;;;;;;;;;4967293;28;20072;-69
2021/09/22 16:34:36;;;;;;;5.47;3.58;;;;;;;;;;4971259;28;20054;-69
2021/09/22 16:37:04;;;;;;;6.13;3.28;;;;;;;;;;4968167;28;20097;-70
2021/09/22 16:39:31;;;;;;;6.07;3.38;;;;;;;;;;4966871;28;20203;-69
2021/09/22 16:41:59;;;;;;;12.30;4.10;;;;;;;;;;4970868;28;20554;-69
2021/09/22 16:44:28;;;;;;;8.32;3.80;;;;;;;;;;4969396;28;20435;-70
2021/09/22 16:46:57;;;;;;;6.13;3.70;;;;;;;;;;4967412;28;20046;-69
2021/09/22 16:49:25;;;;;;;8.38;4.38;;;;;;;;;;4951962;28;20207;-69
2021/09/22 16:51:52;;;;;;;7.47;3.72;;;;;;;;;;4970932;28;20054;-70
2021/09/22 16:54:19;;;;;;;7.85;3.72;;;;;;;;;;4968141;28;20125;-69
2021/09/22 16:56:47;;;;;;;7.75;3.88;;;;;;;;;;4963605;28;20039;-70
2021/09/22 16:59:14;;;;;;;6.55;3.72;;;;;;;;;;4964570;28;20407;-69
2021/09/22 17:01:43;;;;;;;9.13;4.22;;;;;;;;;;4969185;28;20069;-69
2021/09/22 17:04:11;;;;;;;6.60;3.70;;;;;;;;;;4968292;28;20693;-69
2021/09/22 17:06:39;;;;;;;5.47;3.95;;;;;;;;;;4966093;28;20042;-68
2021/09/22 17:09:06;;;;;;;5.38;3.53;;;;;;;;;;4960309;28;20256;-68
2021/09/22 17:11:34;;;;;;;7.13;4.15;;;;;;;;;;4969835;28;20554;-69
2021/09/22 17:14:01;;;;;;;13.98;3.92;;;;;;;;;;4970451;28;20149;-66
2021/09/22 17:16:29;;;;;;;7.40;4.00;;;;;;;;;;4969025;28;20067;-69
2021/09/22 17:18:58;;;;;;;8.43;4.15;;;;;;;;;;4969825;28;20046;-69
2021/09/22 17:21:25;;;;;;;3.90;3.50;;;;;;;;;;4969378;28;20046;-69
2021/09/22 17:23:54;;;;;;;6.20;4.30;;;;;;;;;;4967274;28;20066;-69
2021/09/22 17:26:21;;;;;;;8.65;4.22;;;;;;;;;;4969244;28;20041;-69
2021/09/22 17:28:50;;;;;;;6.47;4.10;;;;;;;;;;4966160;28;20047;-69
2021/09/22 17:31:20;;;;;;;10.25;4.20;;;;;;;;;;4960175;28;20043;-69
2021/09/22 17:33:48;;;;;;;7.50;4.15;;;;;;;;;;4945209;29;20482;-69
2021/09/22 17:36:18;;;;;;;9.00;5.15;;;;;;;;;;4957246;28;20039;-69
2021/09/22 17:38:46;;;;;;;6.63;5.25;;;;;;;;;;4971053;28;20078;-68
2021/09/22 17:41:15;;;;;;;7.30;5.15;;;;;;;;;;4967100;28;20042;-69
2021/09/22 17:43:44;;;;;;;8.75;5.75;;;;;;;;;;4968055;28;20051;-68
2021/09/22 17:46:11;;;;;;;9.95;6.22;;;;;;;;;;4970112;28;20041;-69
2021/09/22 17:48:39;;;;;;;14.10;7.20;;;;;;;;;;4970310;28;20113;-69
2021/09/22 17:51:09;;;;;;;11.82;7.10;;;;;;;;;;4939383;28;20055;-69
2021/09/22 17:53:39;;;;;;;13.23;8.90;;;;;;;;;;4942806;28;20050;-69
2021/09/22 17:56:06;;;;;;;18.63;8.82;;;;;;;;;;4957147;28;20046;-69
2021/09/22 17:58:33;;;;;;;17.40;9.55;;;;;;;;;;4968505;28;20043;-68
2021/09/22 18:01:01;;;;;;;16.08;9.30;;;;;;;;;;4966183;28;20499;-69
2021/09/22 18:03:30;;;;;;;14.40;9.00;;;;;;;;;;4968033;28;20050;-69
2021/09/22 18:05:57;;;;;;;14.13;9.23;;;;;;;;;;4969862;28;20150;-69
2021/09/22 18:08:25;;;;;;;14.27;8.63;;;;;;;;;;4968858;28;20038;-69
2021/09/22 18:10:54;;;;;;;15.52;8.55;;;;;;;;;;4965865;28;20043;-69
2021/09/22 18:13:22;;;;;;;12.65;7.57;;;;;;;;;;4968969;28;20142;-69
2021/09/22 18:15:50;;;;;;;10.90;7.47;;;;;;;;;;4971390;28;20049;-69
2021/09/22 18:18:19;;;;;;;11.02;6.47;;;;;;;;;;4967984;28;20050;-69
2021/09/22 18:20:47;;;;;;;14.50;7.30;;;;;;;;;;4965727;28;20061;-68
2021/09/22 18:23:15;;;;;;;13.27;7.72;;;;;;;;;;4967824;28;20093;-69
2021/09/22 18:25:43;;;;;;;12.85;6.88;;;;;;;;;;4969534;28;20043;-69
2021/09/22 18:28:12;;;;;;;11.80;7.43;;;;;;;;;;4957012;28;20040;-69
2021/09/22 18:30:40;;;;;;;9.15;7.90;;;;;;;;;;4961816;28;20058;-68
2021/09/22 18:33:07;;;;;;;16.00;8.13;;;;;;;;;;4968400;28;20038;-68
2021/09/22 18:35:36;;;;;;;11.57;7.75;;;;;;;;;;4960842;28;20053;-70
2021/09/22 18:38:05;;;;;;;20.60;7.88;;;;;;;;;;4960503;28;20087;-69
2021/09/22 18:40:33;;;;;;;8.93;7.53;;;;;;;;;;4965054;28;20077;-70
2021/09/22 18:43:01;;;;;;;15.65;10.55;;;;;;;;;;4969848;28;20046;-68
2021/09/22 18:45:30;;;;;;;17.63;10.38;;;;;;;;;;4958734;28;20047;-69
2021/09/22 18:47:57;;;;;;;14.82;10.60;;;;;;;;;;4963996;28;20075;-70
2021/09/22 18:50:25;;;;;;;20.55;11.05;;;;;;;;;;4955968;28;20534;-70
2021/09/22 18:52:52;;;;;;;16.08;10.77;;;;;;;;;;4969056;28;20035;-70
2021/09/22 18:55:20;;;;;;;15.20;10.80;;;;;;;;;;4966742;28;20043;-69
2021/09/22 18:57:48;;;;;;;13.32;9.32;;;;;;;;;;4961566;28;20431;-70
2021/09/22 19:00:17;;;;;;;18.00;9.43;;;;;;;;;;4968456;28;20038;-70
2021/09/22 19:02:45;;;;;;;11.95;8.93;;;;;;;;;;4963937;28;20047;-70
2021/09/22 19:05:14;;;;;;;14.10;9.02;;;;;;;;;;4965803;28;20051;-69
2021/09/22 19:07:42;;;;;;;9.25;7.88;;;;;;;;;;4952047;28;20054;-69
2021/09/22 19:10:11;;;;;;;10.65;7.78;;;;;;;;;;4967697;28;20047;-71
2021/09/22 19:12:38;;;;;;;10.48;6.85;;;;;;;;;;4963188;28;20053;-71
2021/09/22 19:15:08;;;;;;;10.35;7.35;;;;;;;;;;4957600;28;20074;-71
2021/09/22 19:17:36;;;;;;;12.07;8.35;;;;;;;;;;4969904;28;20423;-70
2021/09/22 19:20:06;;;;;;;11.70;7.95;;;;;;;;;;4943014;28;20119;-70
2021/09/22 19:22:34;;;;;;;10.48;7.80;;;;;;;;;;4964608;28;20047;-69
2021/09/22 19:25:01;;;;;;;13.43;8.15;;;;;;;;;;4954612;28;20046;-70
2021/09/22 19:27:28;;;;;;;11.60;7.38;;;;;;;;;;4953787;28;20041;-71
2021/09/22 19:29:56;;;;;;;9.45;7.88;;;;;;;;;;4968760;28;20066;-69
2021/09/22 19:32:23;;;;;;;9.75;7.10;;;;;;;;;;4972386;28;20517;-69
2021/09/22 19:34:51;;;;;;;11.82;6.85;;;;;;;;;;4956798;28;20061;-69
2021/09/22 19:37:19;;;;;;;8.15;7.30;;;;;;;;;;4969061;28;20035;-70
2021/09/22 19:39:47;;;;;;;8.00;7.03;;;;;;;;;;4968489;28;20153;-72
2021/09/22 19:42:14;;;;;;;17.42;8.88;;;;;;;;;;4955796;28;20454;-70